Slingerlands, NY (12159)

10:20 AM EDT on July 23, 2016 (GMT -0400)
Slingerlands - Delmar | | Change Station

Elev 256 ft 42.62 °N, 73.86 °W | Updated 8 seconds ago

Partly Cloudy
Partly Cloudy
82.2 °F
Feels Like 83 °F
N
0.0
Wind Variable Wind from WSW
Gusts 0.0 mph

Today
High -- | Low -- °F
--% Chance of Precip.
Yesterday
High -- | Low -- °F
Precip. -- in
Pressure 29.81 in
Visibility 10.0 miles
Clouds Few 10000 ft
Heat Index 83 °F
Dew Point 61 °F
Humidity 49%
Rainfall 0.00 in
Snow Depth Not available.
5:38 AM 8:24 PM
Waning Gibbous, 85% visible
METAR KALB 231351Z 29007KT 10SM FEW100 28/17 A2982 RMK AO2 SLP095 T02780167
Pressure 29.81 in
Visibility 10.0 miles
Clouds Few 10000 ft
Heat Index 83 °F
Dew Point 61 °F
Humidity 49%
Rainfall 0.00 in
Snow Depth Not available.
5:38 AM 8:24 PM
Waning Gibbous, 85% visible
METAR KALB 231351Z 29007KT 10SM FEW100 28/17 A2982 RMK AO2 SLP095 T02780167

10-Day Weather Forecast

Almanac

Astronomy

Jul. 23, 2016 Rise Set
Actual Time
Civil Twilight
Nautical Twilight
Astronomical Twilight
Moon
Length of Visible Light
Length of Day
Tomorrow will be .
, % of the Moon is Illuminated

Today's Extremes

State Highs State Lows

Community

WunderPhotos

Upload Photos

1,926,821 photos uploaded!

WunderBlog® & News

Nearby

Air Quality

  Air Quality AQ Index Pollutant
Not available.

Snow Depth

Station Depth Elevation

Earthquake Activity

City Distance Mag. Time & Date
Minimum magnitude displayed is 2.5.

Coastal Water Temperatures

Place Temperature

Stations

Nearby Weather Stations

Station Location Temp. Windchill Dew Point Humidity Wind Precip. Elev Updated Type
                   

Watches & Warnings

There are currently no watches in effect.